Time;durP1;ratioP1;P1;durP2;ratioP2;P2;SDS_P1;SDS_P2;PMS_P1;PMS_P2;Temp;Humidity;BMP_temperature;BMP_pressure;BME280_temperature;BME280_humidity;BME280_pressure;Samples;Min_cycle;Max_cycle;Signal;HPM_P1;HPM_P2
2022/11/28 00:01:53;;;;;;;12.60;6.93;;;;;;;7.08;96.29;100940.09;5052440;28;20057;-69
2022/11/28 00:04:19;;;;;;;12.15;7.13;;;;;;;7.10;96.18;100936.75;5046748;28;20082;-69
2022/11/28 00:06:47;;;;;;;13.93;6.63;;;;;;;7.12;96.27;100940.25;5054034;28;20092;-69
2022/11/28 00:09:14;;;;;;;11.77;6.40;;;;;;;7.13;96.38;100926.50;5057216;28;20013;-69
2022/11/28 00:11:41;;;;;;;11.32;6.30;;;;;;;7.16;96.45;100922.28;5059080;28;20033;-69
2022/11/28 00:14:07;;;;;;;10.50;6.03;;;;;;;7.19;96.54;100927.56;5052506;28;20029;-69
2022/11/28 00:16:33;;;;;;;10.10;6.00;;;;;;;7.21;96.43;100920.72;5053649;28;20017;-65
2022/11/28 00:19:00;;;;;;;10.35;5.97;;;;;;;7.22;96.32;100919.91;5048921;28;20025;-65
2022/11/28 00:21:26;;;;;;;10.77;6.45;;;;;;;7.24;96.52;100918.25;5053034;28;20035;-65
2022/11/28 00:23:51;;;;;;;10.60;5.90;;;;;;;7.26;96.23;100912.31;5055334;28;20024;-65
2022/11/28 00:26:24;;;;;;;9.70;5.68;;;;;;;7.27;96.14;100919.25;5047929;28;20025;-65
2022/11/28 00:28:50;;;;;;;11.00;5.95;;;;;;;7.29;96.47;100917.59;5043990;28;20192;-65
2022/11/28 00:31:18;;;;;;;11.48;5.90;;;;;;;7.30;96.53;100914.19;5045287;28;20033;-65
2022/11/28 00:33:44;;;;;;;9.70;5.80;;;;;;;7.34;96.51;100920.34;5045422;28;20095;-65
2022/11/28 00:36:10;;;;;;;8.80;5.35;;;;;;;7.36;96.27;100913.53;5049043;28;20060;-65
2022/11/28 00:38:36;;;;;;;9.38;5.35;;;;;;;7.38;96.10;100906.69;5062197;28;20041;-65
2022/11/28 00:41:04;;;;;;;10.95;5.63;;;;;;;7.39;96.23;100900.69;5060447;28;20280;-65
2022/11/28 00:43:30;;;;;;;11.15;5.35;;;;;;;7.42;96.07;100912.88;5062133;28;20119;-65
2022/11/28 00:45:55;;;;;;;9.23;5.38;;;;;;;7.43;96.30;100906.84;5056786;28;20034;-65
2022/11/28 00:48:21;;;;;;;10.75;5.35;;;;;;;7.43;96.13;100914.63;5043624;28;20191;-65
2022/11/28 00:50:46;;;;;;;8.68;5.60;;;;;;;7.45;95.87;100903.50;5060326;28;20059;-65
2022/11/28 00:53:12;;;;;;;9.60;5.18;;;;;;;7.48;95.78;100901.03;5053374;28;20075;-65
2022/11/28 00:55:40;;;;;;;9.10;5.20;;;;;;;7.48;95.66;100908.78;5056158;28;20116;-65
2022/11/28 00:58:06;;;;;;;8.60;5.13;;;;;;;7.51;95.87;100904.56;5053271;28;20084;-65
2022/11/28 01:00:31;;;;;;;10.38;5.68;;;;;;;7.51;95.49;100891.59;5058372;28;20040;-65
2022/11/28 01:02:56;;;;;;;9.45;5.45;;;;;;;7.51;95.44;100897.66;5058036;28;20029;-65
2022/11/28 01:05:22;;;;;;;9.82;5.45;;;;;;;7.52;95.72;100893.34;5056904;28;20040;-65
2022/11/28 01:07:47;;;;;;;10.05;5.70;;;;;;;7.50;96.05;100893.28;5052090;28;20171;-65
2022/11/28 01:10:13;;;;;;;11.45;5.57;;;;;;;7.48;95.86;100895.84;5059520;28;20048;-65
2022/11/28 01:12:38;;;;;;;8.85;5.03;;;;;;;7.49;96.61;100896.75;5057259;28;20290;-65
2022/11/28 01:15:06;;;;;;;9.77;5.68;;;;;;;7.48;96.78;100898.44;5060053;28;20037;-65
2022/11/28 01:17:31;;;;;;;7.90;5.22;;;;;;;7.48;96.60;100900.16;5056256;28;20074;-69
2022/11/28 01:19:56;;;;;;;10.35;5.72;;;;;;;7.47;96.85;100891.50;5051124;28;20033;-69
2022/11/28 01:22:21;;;;;;;11.65;5.80;;;;;;;7.47;97.02;100896.69;5059897;28;20045;-69
2022/11/28 01:24:47;;;;;;;9.02;5.40;;;;;;;7.46;96.85;100889.72;5059789;28;20227;-69
2022/11/28 01:27:12;;;;;;;11.82;5.47;;;;;;;7.46;97.25;100897.50;5057982;28;20033;-69
2022/11/28 01:29:37;;;;;;;11.05;5.45;;;;;;;7.46;97.14;100899.22;5054012;28;20029;-69
2022/11/28 01:32:03;;;;;;;9.68;5.55;;;;;;;7.45;96.91;100900.91;5053294;28;20278;-69
2022/11/28 01:34:28;;;;;;;10.30;5.55;;;;;;;7.44;96.88;100899.16;5061803;28;20028;-69
2022/11/28 01:36:53;;;;;;;10.25;5.05;;;;;;;7.45;97.04;100906.09;5058194;28;20028;-69
2022/11/28 01:39:18;;;;;;;8.60;4.95;;;;;;;7.45;97.48;100897.44;5048574;28;20024;-69
2022/11/28 01:41:44;;;;;;;9.32;5.53;;;;;;;7.44;97.90;100904.34;5052387;28;20086;-69
2022/11/28 01:44:12;;;;;;;8.32;4.78;;;;;;;7.42;98.20;100903.41;5059787;28;20056;-69
2022/11/28 01:46:37;;;;;;;8.77;4.90;;;;;;;7.41;98.81;100903.34;5061675;28;20083;-69
2022/11/28 01:49:17;;;;;;;10.27;4.93;;;;;;;7.38;99.62;100901.50;5037526;28;20275;-69
2022/11/28 01:51:52;;;;;;;10.68;5.00;;;;;;;7.35;100.00;100901.41;5055825;28;20028;-69
2022/11/28 01:54:21;;;;;;;8.93;5.05;;;;;;;7.32;100.00;100904.75;5046791;28;20044;-69
2022/11/28 01:56:52;;;;;;;9.32;5.07;;;;;;;7.30;100.00;100900.34;5061428;28;20039;-69
2022/11/28 01:59:19;;;;;;;8.48;4.80;;;;;;;7.27;100.00;100902.81;5055763;28;20163;-69
2022/11/28 02:01:45;;;;;;;10.93;5.15;;;;;;;7.26;100.00;100901.06;5059688;28;20029;-69
2022/11/28 02:04:12;;;;;;;10.48;5.15;;;;;;;7.24;100.00;100895.81;5047281;28;20213;-69
2022/11/28 02:06:39;;;;;;;8.68;4.95;;;;;;;7.24;100.00;100897.50;5061742;28;20029;-69
2022/11/28 02:09:10;;;;;;;7.90;4.53;;;;;;;7.24;100.00;100894.91;5052608;28;20280;-69
2022/11/28 02:11:47;;;;;;;10.63;4.95;;;;;;;7.23;100.00;100886.28;5058670;28;20087;-69
2022/11/28 02:14:27;;;;;;;7.57;5.10;;;;;;;7.23;100.00;100885.41;5056370;28;20021;-69
2022/11/28 02:17:07;;;;;;;8.65;4.30;;;;;;;7.23;100.00;100885.41;5056390;28;20029;-69
2022/11/28 02:19:53;;;;;;;7.85;4.57;;;;;;;7.24;100.00;100881.97;5048935;28;20340;-69
2022/11/28 02:22:29;;;;;;;8.52;4.65;;;;;;;7.24;100.00;100875.09;5051761;28;20049;-69
2022/11/28 02:25:14;;;;;;;8.18;4.53;;;;;;;7.24;100.00;100874.19;5054101;28;20051;-69
2022/11/28 02:27:42;;;;;;;10.75;4.60;;;;;;;7.23;100.00;100873.31;5061652;28;20088;-69
2022/11/28 02:30:14;;;;;;;8.88;4.63;;;;;;;7.23;100.00;100881.09;5058614;28;20043;-69
2022/11/28 02:33:04;;;;;;;8.27;4.30;;;;;;;7.23;100.00;100882.81;5059026;28;20290;-69
2022/11/28 02:35:48;;;;;;;8.73;4.25;;;;;;;7.23;100.00;100875.03;5061128;28;20025;-69
2022/11/28 02:38:25;;;;;;;7.43;4.00;;;;;;;7.23;100.00;100875.03;5051680;28;20052;-69
2022/11/28 02:40:56;;;;;;;7.43;3.97;;;;;;;7.20;100.00;100875.78;5059986;28;20021;-69
2022/11/28 02:43:34;;;;;;;8.68;4.75;;;;;;;7.19;100.00;100878.34;5064135;28;20322;-69
2022/11/28 02:46:21;;;;;;;8.13;4.03;;;;;;;7.18;100.00;100880.03;5035260;28;20012;-70
2022/11/28 02:48:54;;;;;;;7.20;3.97;;;;;;;7.17;100.00;100879.97;5046321;28;20302;-69
2022/11/28 02:51:27;;;;;;;7.72;4.22;;;;;;;7.15;100.00;100882.50;5044218;28;20022;-69
2022/11/28 02:53:55;;;;;;;7.75;4.15;;;;;;;7.13;100.00;100885.03;5052447;28;20142;-69
2022/11/28 02:56:23;;;;;;;7.25;3.90;;;;;;;7.12;100.00;100880.66;5046010;28;20044;-65
2022/11/28 02:58:48;;;;;;;7.53;4.22;;;;;;;7.10;100.00;100864.19;5045086;28;20035;-65
2022/11/28 03:01:24;;;;;;;7.30;3.90;;;;;;;7.10;100.00;100869.38;5058582;28;20183;-65
2022/11/28 03:04:11;;;;;;;8.00;4.03;;;;;;;7.10;100.00;100869.38;5056677;28;20205;-65
2022/11/28 03:06:57;;;;;;;7.38;3.85;;;;;;;7.10;100.00;100863.31;5053590;28;20021;-65
2022/11/28 03:09:42;;;;;;;7.60;4.18;;;;;;;7.07;100.00;100866.66;5049592;28;20039;-65
2022/11/28 03:12:31;;;;;;;8.98;4.20;;;;;;;7.06;100.00;100866.63;5063969;28;20028;-66
2022/11/28 03:15:01;;;;;;;7.32;3.90;;;;;;;7.05;100.00;100855.34;5044693;28;20027;-65
2022/11/28 03:17:44;;;;;;;9.27;4.40;;;;;;;7.04;100.00;100856.19;5042302;28;20024;-65
2022/11/28 03:20:20;;;;;;;6.88;3.75;;;;;;;7.02;100.00;100856.94;5047765;28;20079;-65
2022/11/28 03:23:01;;;;;;;9.00;4.00;;;;;;;7.00;100.00;100859.50;5028145;28;20037;-65
2022/11/28 03:25:50;;;;;;;7.47;4.00;;;;;;;6.99;100.00;100855.13;5050248;28;20100;-65
2022/11/28 03:28:32;;;;;;;8.53;4.43;;;;;;;6.99;100.00;100860.31;5054966;28;20025;-65
2022/11/28 03:31:09;;;;;;;8.57;4.03;;;;;;;6.98;100.00;100853.38;5052968;28;20025;-66
2022/11/28 03:33:37;;;;;;;9.77;4.30;;;;;;;6.98;100.00;100858.56;5055739;28;20025;-65
2022/11/28 03:36:27;;;;;;;7.15;4.18;;;;;;;6.97;100.00;100852.47;5053816;28;20024;-65
2022/11/28 03:39:02;;;;;;;9.07;4.10;;;;;;;6.97;100.00;100856.78;5048924;28;20056;-65
2022/11/28 03:41:41;;;;;;;8.85;3.95;;;;;;;6.97;100.00;100856.78;5063126;28;20036;-65
2022/11/28 03:44:13;;;;;;;9.52;4.28;;;;;;;6.96;100.00;100855.00;5054892;28;20112;-65
2022/11/28 03:46:44;;;;;;;7.63;4.13;;;;;;;6.95;100.00;100853.22;5059457;28;20041;-65
2022/11/28 03:49:14;;;;;;;8.68;4.18;;;;;;;6.94;100.00;100851.50;5037604;28;20040;-65
2022/11/28 03:51:47;;;;;;;8.30;4.05;;;;;;;6.95;100.00;100855.81;5060563;28;20064;-65
2022/11/28 03:54:21;;;;;;;7.13;4.18;;;;;;;6.95;100.00;100848.06;5051485;28;20092;-65
2022/11/28 03:57:09;;;;;;;9.65;3.92;;;;;;;6.95;100.00;100853.22;5050938;28;20256;-70
2022/11/28 03:59:46;;;;;;;7.35;4.32;;;;;;;6.95;100.00;100854.13;5052204;28;20021;-69
2022/11/28 04:02:29;;;;;;;8.43;3.83;;;;;;;6.95;100.00;100855.81;5051243;28;20032;-69
2022/11/28 04:05:10;;;;;;;8.45;3.80;;;;;;;6.95;100.00;100853.22;5056094;28;20203;-69
2022/11/28 04:07:51;;;;;;;8.85;3.75;;;;;;;6.93;100.00;100854.91;5046642;28;20038;-69
2022/11/28 04:10:22;;;;;;;7.20;3.83;;;;;;;6.94;100.00;100856.66;5054357;28;20232;-69
2022/11/28 04:13:02;;;;;;;8.65;4.10;;;;;;;6.94;100.00;100861.84;5057851;28;20013;-69
2022/11/28 04:15:36;;;;;;;6.63;3.75;;;;;;;6.93;100.00;100850.59;5043714;28;20096;-70
2022/11/28 04:18:44;;;;;;;8.88;4.22;;;;;;;6.94;100.00;100854.09;5054753;28;20272;-69
2022/11/28 04:21:09;;;;;;;7.87;3.83;;;;;;;6.94;100.00;100857.53;4982919;28;20157;-70
2022/11/28 04:23:37;;;;;;;7.93;3.90;;;;;;;6.94;100.00;100860.13;5046785;28;20279;-70
2022/11/28 04:26:12;;;;;;;7.53;4.47;;;;;;;6.94;100.00;100856.66;5043373;28;20292;-69
2022/11/28 04:28:39;;;;;;;9.27;3.95;;;;;;;6.95;100.00;100864.50;5055020;28;20036;-66
2022/11/28 04:31:07;;;;;;;7.85;4.20;;;;;;;6.94;100.00;100859.25;5051324;28;20034;-65
2022/11/28 04:33:37;;;;;;;9.32;4.72;;;;;;;6.93;100.00;100855.75;5051137;28;20021;-65
2022/11/28 04:36:05;;;;;;;7.88;4.05;;;;;;;6.94;100.00;100854.09;5049054;28;20024;-65
2022/11/28 04:38:32;;;;;;;9.07;4.70;;;;;;;6.93;100.00;100852.31;5059348;28;20029;-65
2022/11/28 04:41:05;;;;;;;7.75;4.30;;;;;;;6.93;100.00;100860.06;5062377;28;20035;-66
2022/11/28 04:43:38;;;;;;;7.10;4.13;;;;;;;6.93;100.00;100854.91;5062208;28;20267;-65
2022/11/28 04:46:08;;;;;;;9.13;5.00;;;;;;;6.93;100.00;100862.66;5056775;28;20083;-65
2022/11/28 04:48:34;;;;;;;9.30;4.70;;;;;;;6.93;100.00;100849.72;5052340;28;20026;-66
2022/11/28 04:51:14;;;;;;;8.10;4.57;;;;;;;6.93;100.00;100849.72;5044184;28;20102;-66
2022/11/28 04:53:50;;;;;;;9.10;4.72;;;;;;;6.94;100.00;100856.66;5053963;28;20036;-66
2022/11/28 04:56:22;;;;;;;9.02;4.72;;;;;;;6.94;100.00;100856.66;5060388;28;20021;-69
2022/11/28 04:58:49;;;;;;;11.02;4.95;;;;;;;6.94;100.00;100854.09;5056840;28;20033;-70
2022/11/28 05:01:24;;;;;;;7.18;4.30;;;;;;;6.95;100.00;100855.81;5057368;28;20035;-70
2022/11/28 05:03:50;;;;;;;8.38;4.75;;;;;;;6.94;100.00;100854.09;5050285;28;20049;-70
2022/11/28 05:06:33;;;;;;;7.78;4.90;;;;;;;6.94;100.00;100852.34;5057073;28;20032;-70
2022/11/28 05:08:59;;;;;;;8.55;4.75;;;;;;;6.95;100.00;100859.31;5063611;28;20024;-70
2022/11/28 05:11:25;;;;;;;8.70;5.13;;;;;;;6.95;100.00;100861.00;5061796;28;20088;-70
2022/11/28 05:13:50;;;;;;;9.55;4.93;;;;;;;6.96;100.00;100858.47;5061623;28;20135;-70
2022/11/28 05:16:16;;;;;;;9.20;5.03;;;;;;;6.96;100.00;100863.66;5052558;28;20056;-70
2022/11/28 05:18:42;;;;;;;7.97;4.50;;;;;;;6.95;100.00;100869.69;5057111;28;20075;-70
2022/11/28 05:21:09;;;;;;;9.52;5.20;;;;;;;6.97;100.00;100877.50;5050359;28;20116;-69
2022/11/28 05:23:39;;;;;;;10.10;5.63;;;;;;;6.97;100.00;100873.19;5055052;28;20032;-70
2022/11/28 05:26:11;;;;;;;9.60;5.20;;;;;;;6.99;100.00;100873.25;5041182;28;20044;-70
2022/11/28 05:28:36;;;;;;;10.93;5.75;;;;;;;7.00;100.00;100867.25;5049006;28;20021;-70
2022/11/28 05:31:01;;;;;;;9.25;5.65;;;;;;;7.00;100.00;100871.56;5054842;28;20079;-70
2022/11/28 05:33:29;;;;;;;9.38;5.65;;;;;;;7.01;100.00;100874.22;5051511;28;20159;-70
2022/11/28 05:35:54;;;;;;;10.52;5.85;;;;;;;7.01;100.00;100874.22;5055424;28;20041;-70
2022/11/28 05:38:19;;;;;;;11.60;6.00;;;;;;;7.02;100.00;100872.50;5049550;28;20367;-70
2022/11/28 05:40:45;;;;;;;9.73;5.97;;;;;;;7.03;100.00;100874.28;5060824;28;20283;-70
2022/11/28 05:43:10;;;;;;;9.52;5.85;;;;;;;7.02;100.00;100875.97;5058825;28;20272;-69
2022/11/28 05:45:40;;;;;;;11.55;6.13;;;;;;;7.03;100.00;100872.56;5058000;28;20041;-70
2022/11/28 05:48:06;;;;;;;9.75;6.10;;;;;;;7.03;100.00;100871.69;5050714;28;20049;-70
2022/11/28 05:50:31;;;;;;;8.73;5.70;;;;;;;7.04;100.00;100879.50;5054558;28;20275;-70
2022/11/28 05:52:56;;;;;;;10.90;6.20;;;;;;;7.05;100.00;100877.78;5055602;28;20097;-69
2022/11/28 05:55:21;;;;;;;10.35;6.25;;;;;;;7.05;100.00;100873.47;5049773;28;20056;-70
2022/11/28 05:57:47;;;;;;;10.50;6.10;;;;;;;7.05;100.00;100876.06;5049169;28;20083;-70
2022/11/28 06:00:13;;;;;;;11.32;6.30;;;;;;;7.07;100.00;100878.75;5057092;28;20053;-70
2022/11/28 06:02:38;;;;;;;10.30;6.43;;;;;;;7.06;100.00;100876.97;5047281;28;20037;-70
2022/11/28 06:05:04;;;;;;;10.98;6.68;;;;;;;7.07;100.00;100874.44;5021700;28;20036;-70
2022/11/28 06:07:29;;;;;;;11.30;6.80;;;;;;;7.08;100.00;100870.13;5032833;28;20035;-70
2022/11/28 06:09:54;;;;;;;12.77;7.50;;;;;;;7.07;100.00;100868.38;5058888;28;20097;-70
2022/11/28 06:12:20;;;;;;;10.52;6.65;;;;;;;7.08;100.00;100876.22;5061220;28;20295;-70
2022/11/28 06:14:45;;;;;;;11.48;6.65;;;;;;;7.09;100.00;100877.97;5056703;28;20040;-70
2022/11/28 06:17:10;;;;;;;11.45;6.95;;;;;;;7.08;100.00;100875.31;5044104;28;20083;-70
2022/11/28 06:19:36;;;;;;;11.25;7.15;;;;;;;7.09;100.00;100877.09;5054211;28;20216;-70
2022/11/28 06:22:01;;;;;;;10.93;6.88;;;;;;;7.08;100.00;100885.69;5061124;28;20194;-70
2022/11/28 06:24:26;;;;;;;11.23;7.40;;;;;;;7.08;100.00;100880.50;5052124;28;20083;-70
2022/11/28 06:26:52;;;;;;;10.70;6.75;;;;;;;7.07;100.00;100884.81;5054710;28;20072;-70
2022/11/28 06:29:17;;;;;;;12.57;7.85;;;;;;;7.08;100.00;100885.69;5051605;28;20075;-70
2022/11/28 06:31:42;;;;;;;12.27;7.20;;;;;;;7.07;100.00;100895.16;5059342;28;20078;-70
2022/11/28 06:34:11;;;;;;;12.13;7.43;;;;;;;7.07;100.00;100892.56;5052516;28;20279;-70
2022/11/28 06:36:37;;;;;;;11.35;7.03;;;;;;;7.09;100.00;100890.03;5062337;28;20411;-65
2022/11/28 06:39:02;;;;;;;12.63;7.50;;;;;;;7.10;100.00;100891.81;5052471;28;20083;-65
2022/11/28 06:41:27;;;;;;;12.05;7.25;;;;;;;7.09;100.00;100885.72;5056345;28;20047;-65
2022/11/28 06:43:55;;;;;;;12.70;8.07;;;;;;;7.10;100.00;100892.69;5053519;28;20049;-66
2022/11/28 06:46:21;;;;;;;12.55;7.68;;;;;;;7.10;100.00;100892.69;5055716;28;20078;-66
2022/11/28 06:48:49;;;;;;;13.88;8.63;;;;;;;7.10;100.00;100895.28;5055072;28;20049;-65
2022/11/28 06:51:16;;;;;;;13.85;8.25;;;;;;;7.11;100.00;100891.88;5048338;28;20241;-65
2022/11/28 06:53:41;;;;;;;13.65;7.82;;;;;;;7.13;100.00;100889.34;5044859;28;20310;-66
2022/11/28 06:56:09;;;;;;;13.10;8.32;;;;;;;7.13;100.00;100891.94;5046295;28;20052;-65
2022/11/28 06:58:35;;;;;;;14.50;8.38;;;;;;;7.13;100.00;100898.00;5045418;28;20065;-65
2022/11/28 07:01:12;;;;;;;13.98;7.95;;;;;;;7.14;100.00;100897.19;5045967;28;20079;-66
2022/11/28 07:03:38;;;;;;;12.40;7.90;;;;;;;7.13;100.00;100898.00;5047748;28;20276;-66
2022/11/28 07:06:05;;;;;;;14.43;8.70;;;;;;;7.13;100.00;100890.22;5059609;28;20082;-66
2022/11/28 07:08:31;;;;;;;13.85;7.72;;;;;;;7.13;100.00;100895.41;5050972;28;20037;-65
2022/11/28 07:10:57;;;;;;;12.93;8.00;;;;;;;7.12;100.00;100888.44;5052701;28;20033;-65
2022/11/28 07:13:23;;;;;;;14.18;7.93;;;;;;;7.13;100.00;100899.72;5061531;28;20240;-66
2022/11/28 07:15:52;;;;;;;13.20;7.70;;;;;;;7.13;100.00;100894.53;5049615;28;20067;-65
2022/11/28 07:18:17;;;;;;;14.00;8.13;;;;;;;7.13;100.00;100899.72;5054338;28;20095;-65
2022/11/28 07:20:42;;;;;;;14.23;8.27;;;;;;;7.14;100.00;100899.75;5047336;28;20029;-65
2022/11/28 07:23:07;;;;;;;14.70;9.32;;;;;;;7.16;100.00;100904.13;5056518;28;20041;-66
2022/11/28 07:25:33;;;;;;;16.65;8.55;;;;;;;7.16;100.00;100909.31;5057972;28;20032;-65
2022/11/28 07:27:59;;;;;;;14.32;8.35;;;;;;;7.16;100.00;100907.59;5054549;28;20286;-65
2022/11/28 07:30:24;;;;;;;15.35;9.15;;;;;;;7.17;100.00;100905.88;5059938;28;20021;-65
2022/11/28 07:32:50;;;;;;;14.48;9.23;;;;;;;7.18;100.00;100910.25;5058371;28;20282;-65
2022/11/28 07:35:15;;;;;;;19.45;9.50;;;;;;;7.19;100.00;100906.84;5055149;28;20036;-65
2022/11/28 07:37:40;;;;;;;14.18;8.55;;;;;;;7.20;100.00;100911.16;5060414;28;20029;-70
2022/11/28 07:40:06;;;;;;;15.35;9.05;;;;;;;7.18;100.00;100913.72;5048476;28;20321;-70
2022/11/28 07:42:31;;;;;;;15.45;8.93;;;;;;;7.20;100.00;100918.94;5059376;28;20036;-69
2022/11/28 07:44:57;;;;;;;15.52;8.45;;;;;;;7.22;100.00;100935.47;5058149;28;20036;-70
2022/11/28 07:47:22;;;;;;;17.45;9.52;;;;;;;7.20;100.00;100922.44;5046330;28;20021;-70
2022/11/28 07:49:47;;;;;;;17.50;9.63;;;;;;;7.22;100.00;100927.69;5054529;28;20037;-70
2022/11/28 07:52:13;;;;;;;17.65;9.40;;;;;;;7.23;100.00;100924.28;5047266;28;20112;-70
2022/11/28 07:54:38;;;;;;;17.13;9.30;;;;;;;7.23;100.00;100926.88;5046719;28;20033;-70
2022/11/28 07:57:03;;;;;;;14.95;8.88;;;;;;;7.24;100.00;100929.50;5053600;28;20263;-70
2022/11/28 07:59:28;;;;;;;15.40;9.13;;;;;;;7.24;100.00;100933.78;5043037;28;20041;-70
2022/11/28 08:01:54;;;;;;;16.15;9.00;;;;;;;7.23;100.00;100939.81;5055758;28;20036;-70
2022/11/28 08:04:19;;;;;;;16.13;8.25;;;;;;;7.24;100.00;100949.34;5050783;28;20047;-70
2022/11/28 08:06:44;;;;;;;16.30;8.70;;;;;;;7.25;100.00;100940.75;5055283;28;20036;-70
2022/11/28 08:09:13;;;;;;;15.30;8.77;;;;;;;7.24;100.00;100945.06;5056684;28;20445;-70
2022/11/28 08:11:39;;;;;;;14.18;8.50;;;;;;;7.25;100.00;100945.94;5053021;28;20049;-70
2022/11/28 08:14:05;;;;;;;14.65;8.45;;;;;;;7.27;100.00;100945.19;5050172;28;20040;-70
2022/11/28 08:16:31;;;;;;;13.93;8.40;;;;;;;7.28;100.00;100938.28;5050949;28;20272;-70
2022/11/28 08:18:59;;;;;;;16.23;8.90;;;;;;;7.29;100.00;100940.06;5056851;28;20271;-70
2022/11/28 08:21:27;;;;;;;14.60;8.25;;;;;;;7.30;100.00;100947.88;5058053;28;20067;-70
2022/11/28 08:23:54;;;;;;;14.38;8.55;;;;;;;7.31;100.00;100949.66;5052916;28;20044;-70
2022/11/28 08:26:22;;;;;;;15.65;8.00;;;;;;;7.33;100.00;100944.53;5049793;28;20033;-70
2022/11/28 08:28:47;;;;;;;14.90;8.80;;;;;;;7.33;100.00;100949.72;5047943;28;20037;-70
2022/11/28 08:31:16;;;;;;;16.02;8.88;;;;;;;7.35;100.00;100948.06;5054414;28;20032;-70
2022/11/28 08:33:42;;;;;;;14.93;8.60;;;;;;;7.38;100.00;100942.09;5055739;28;20272;-70
2022/11/28 08:36:09;;;;;;;15.88;8.68;;;;;;;7.38;100.00;100948.16;5049461;28;20395;-70
2022/11/28 08:38:36;;;;;;;17.38;9.27;;;;;;;7.39;100.00;100951.66;5046742;28;20029;-70
2022/11/28 08:41:21;;;;;;;18.92;8.93;;;;;;;7.42;100.00;100959.56;5046700;28;20029;-70
2022/11/28 08:43:47;;;;;;;15.65;8.43;;;;;;;7.44;100.00;100953.59;5047836;28;20092;-70
2022/11/28 08:46:17;;;;;;;18.52;9.40;;;;;;;7.44;100.00;100958.78;5053468;28;20033;-66
2022/11/28 08:48:43;;;;;;;14.57;8.40;;;;;;;7.45;100.00;100955.34;5050238;28;20024;-65
2022/11/28 08:51:15;;;;;;;16.40;8.75;;;;;;;7.47;100.00;100956.31;5048771;28;20167;-66
2022/11/28 08:53:41;;;;;;;16.98;8.85;;;;;;;7.49;100.00;100962.44;5043577;28;20029;-66
2022/11/28 08:56:06;;;;;;;15.27;8.30;;;;;;;7.51;100.00;100959.03;5046763;28;20143;-66
2022/11/28 08:58:32;;;;;;;18.50;9.25;;;;;;;7.52;100.00;100960.75;5047640;28;20029;-66
2022/11/28 09:00:57;;;;;;;18.13;9.13;;;;;;;7.53;100.00;100957.34;5054371;28;20071;-65
2022/11/28 09:03:22;;;;;;;18.60;9.40;;;;;;;7.54;100.00;100956.53;5054664;28;20044;-65
2022/11/28 09:05:48;;;;;;;16.15;9.07;;;;;;;7.55;100.00;100959.19;5042694;28;20056;-66
2022/11/28 09:08:15;;;;;;;19.00;8.77;;;;;;;7.56;100.00;100950.59;5055500;28;20059;-66
2022/11/28 09:10:41;;;;;;;16.17;9.13;;;;;;;7.59;100.00;100954.97;5057901;28;20036;-65
2022/11/28 09:13:08;;;;;;;17.05;8.95;;;;;;;7.61;100.00;100961.13;5044308;28;20052;-66
2022/11/28 09:15:34;;;;;;;17.35;8.60;;;;;;;7.60;100.00;100957.66;5041621;28;20284;-66
2022/11/28 09:17:59;;;;;;;19.55;9.60;;;;;;;7.61;100.00;100967.19;5046475;28;20056;-65
2022/11/28 09:20:25;;;;;;;16.08;8.82;;;;;;;7.63;100.00;100973.34;5041498;28;20025;-66
2022/11/28 09:22:51;;;;;;;15.35;8.25;;;;;;;7.64;100.00;100971.63;5045168;28;20036;-65
2022/11/28 09:25:16;;;;;;;15.68;8.70;;;;;;;7.66;100.00;100975.13;5045921;28;20056;-66
2022/11/28 09:27:41;;;;;;;16.95;8.48;;;;;;;7.67;100.00;100974.31;5041676;28;20045;-65
2022/11/28 09:30:08;;;;;;;17.05;8.50;;;;;;;7.68;100.00;100975.22;5045071;28;20037;-66
2022/11/28 09:32:34;;;;;;;18.10;8.45;;;;;;;7.68;100.00;100973.50;5043349;28;20037;-65
2022/11/28 09:34:59;;;;;;;17.58;8.63;;;;;;;7.71;100.00;100975.31;5045697;28;20178;-66
2022/11/28 09:37:27;;;;;;;16.63;8.73;;;;;;;7.72;100.00;100972.78;5045049;28;20271;-66
2022/11/28 09:39:52;;;;;;;15.32;8.38;;;;;;;7.75;100.00;100977.19;5051757;28;20044;-66
2022/11/28 09:42:36;;;;;;;16.23;8.57;;;;;;;7.76;100.00;100977.28;5054347;28;20037;-66
2022/11/28 09:45:18;;;;;;;16.38;8.20;;;;;;;7.78;100.00;100972.13;5032881;28;20037;-66
2022/11/28 09:47:58;;;;;;;16.30;8.43;;;;;;;7.80;100.00;100973.06;5044391;28;20100;-65
2022/11/28 09:50:29;;;;;;;16.95;8.55;;;;;;;7.82;100.00;100981.78;5046795;28;20024;-63
2022/11/28 09:53:01;;;;;;;16.65;8.88;;;;;;;7.82;100.00;100981.78;5054336;28;20032;-63
2022/11/28 09:56:14;;;;;;;15.35;8.02;;;;;;;7.84;100.00;100982.72;5055420;28;20060;-63
2022/11/28 09:58:49;;;;;;;14.88;8.00;;;;;;;7.86;100.00;100980.19;5040735;28;20053;-63
2022/11/28 10:01:29;;;;;;;16.27;8.32;;;;;;;7.89;100.00;100982.91;5037539;28;20017;-63
2022/11/28 10:04:01;;;;;;;18.05;8.55;;;;;;;7.89;100.00;100981.16;5043564;28;20029;-63
2022/11/28 10:06:54;;;;;;;16.45;8.80;;;;;;;7.91;100.00;100989.03;5052468;28;20408;-63
2022/11/28 10:09:35;;;;;;;17.63;9.02;;;;;;;7.92;100.00;100986.50;5057371;28;20337;-63
2022/11/28 10:12:06;;;;;;;17.20;8.25;;;;;;;7.97;100.00;100978.88;5056194;28;20028;-64
2022/11/28 10:15:02;;;;;;;16.52;8.60;;;;;;;8.00;100.00;100979.84;5060782;28;20030;-63
2022/11/28 10:17:35;;;;;;;16.98;8.57;;;;;;;8.05;100.00;100979.16;5050197;28;20264;-63
2022/11/28 10:20:21;;;;;;;18.13;9.10;;;;;;;8.07;100.00;100978.38;5058741;28;20029;-63
2022/11/28 10:22:54;;;;;;;18.83;9.15;;;;;;;8.08;100.00;100982.75;5049426;28;20037;-63
2022/11/28 10:25:34;;;;;;;18.00;9.35;;;;;;;8.10;100.00;100983.69;5053311;28;20049;-63
2022/11/28 10:28:00;;;;;;;20.38;10.35;;;;;;;8.12;100.00;100981.13;5056545;28;20029;-68
2022/11/28 10:30:29;;;;;;;20.40;10.13;;;;;;;8.16;100.00;100977.81;5047141;28;20061;-68
2022/11/28 10:33:10;;;;;;;19.30;9.80;;;;;;;8.18;100.00;100978.75;5064584;28;20275;-68
2022/11/28 10:35:43;;;;;;;20.42;10.02;;;;;;;8.17;100.00;100977.88;5053696;28;20102;-68
2022/11/28 10:38:11;;;;;;;20.88;10.07;;;;;;;8.19;100.00;100978.78;5054716;28;20029;-68
2022/11/28 10:40:53;;;;;;;21.35;10.23;;;;;;;8.19;100.00;100978.78;5063350;28;20032;-68
2022/11/28 10:43:39;;;;;;;20.30;9.77;;;;;;;8.23;100.00;100984.13;5062523;28;20068;-68
2022/11/28 10:46:19;;;;;;;19.17;10.00;;;;;;;8.26;100.00;100984.22;5059015;28;20045;-68
2022/11/28 10:48:58;;;;;;;;;;;;;;;8.32;100.00;100990.50;5057326;28;20274;-68
2022/11/28 10:51:33;;;;;;;;;;;;;;;8.35;100.00;100992.31;5054132;28;19916;-68
2022/11/28 10:54:32;;;;;;;20.75;9.75;;;;;;;8.35;100.00;100989.72;5051482;28;19909;-68
2022/11/28 10:57:20;;;;;;;;;;;;;;;8.39;100.00;100996.81;5053178;28;20040;-63
2022/11/28 11:00:04;;;;;;;21.98;10.13;;;;;;;8.36;100.00;100991.50;5047997;28;19917;-64
2022/11/28 11:02:36;;;;;;;24.33;11.43;;;;;;;8.36;100.00;101000.16;5049336;28;20029;-63
2022/11/28 11:05:02;;;;;;;23.10;11.27;;;;;;;8.36;100.00;100997.56;5054831;28;20128;-63
2022/11/28 11:07:29;;;;;;;26.45;11.63;;;;;;;8.36;100.00;100997.56;5055794;28;20025;-63
2022/11/28 11:10:01;;;;;;;25.67;11.75;;;;;;;8.36;100.00;101001.91;5051872;28;20025;-63
2022/11/28 11:12:31;;;;;;;25.50;12.50;;;;;;;8.36;100.00;100994.09;5064772;28;20167;-64
2022/11/28 11:14:56;;;;;;;;;;;;;;;8.42;100.00;100996.03;5046882;28;20029;-63
2022/11/28 11:17:26;;;;;;;28.42;12.80;;;;;;;8.41;100.00;100992.53;5048998;28;20120;-64
2022/11/28 11:19:51;;;;;;;31.38;14.20;;;;;;;8.42;100.00;100983.06;5047013;28;20283;-64
2022/11/28 11:22:18;;;;;;;32.28;14.85;;;;;;;8.41;100.00;100982.16;5050034;28;20041;-64
2022/11/28 11:25:04;;;;;;;33.25;15.18;;;;;;;8.44;100.00;100979.69;5053090;28;20028;-64
2022/11/28 11:27:30;;;;;;;29.50;14.35;;;;;;;8.45;100.00;100984.06;5054830;28;20035;-68
2022/11/28 11:29:56;;;;;;;36.75;16.05;;;;;;;8.46;100.00;100988.44;5064448;28;20153;-68
2022/11/28 11:32:28;;;;;;;32.47;14.70;;;;;;;8.47;100.00;100987.59;5064479;28;20335;-68
2022/11/28 11:34:56;;;;;;;110.85;42.35;;;;;;;8.48;100.00;100991.06;5061002;28;20280;-68
2022/11/28 11:37:35;;;;;;;56.30;23.27;;;;;;;8.50;100.00;100989.41;5046715;28;20076;-68